Portada
METAR-TAF:

METAR-TAF

Aeroports :

Libreville, Gabon

latitud: 00-27N, longitud: 009-25E, altitud: 12 m

Observació

L'informe es va fer fa 27 minuts, a les 02:30 UTC
Vent 6 kt del Sud
Temperatura 24°C
Humitat 89%
Pressió 1013 hPa
Visibilitat 10 km o més
Escasses núvols a una alçada de 1000 ft
Cel ennuvolat a una alçada de 2600 ft

METAR: FOOL 200230Z 18006KT 9999 FEW010 BKN026 24/22 Q1013 NOSIG

Hora: 03:57 (02:57 UTC)

Pronòstic

L'informe es va fer fa 3 hores i 57 minuts, a les 23:00 UTC
Pronòstic vàlid del 20 a les 00 UTC al 21 a les 06 UTC
Vent 6 kt del Sud/Sud-Oest
Visibilitat 10 km o més
Núvols disperses a una alçada de 1000 ft
Cel ennuvolat a una alçada de 3000 ft
Probabilitat 30% :
Temporalment
l' 20 a les 06 UTC al 20 a les 10 UTC
Cel ennuvolat a una alçada de 800 ft
Cel cobert a una alçada de 2600 ft

TAF: FOOL 192300Z 2000/2106 20006KT 9999 SCT010 BKN030 PROB30 TEMPO 2006/2010 BKN008 OVC026

Observacions i pronòstics meteorològics de més de 4000 aeroports (METAR i TAF).

Les estacions disponibles són els punts grocs i vermells al mapa.

Posi el ratolí al punt desitjat per veure el nom de l'estació.

Feu clic per veure les observacions i els pronòstics meteorològics.

Per canviar el mapa: feu clic els botons verds amb una creu de color negre per apropar; al botó verd amb un guió per allunyar la imatge; o en les fletxes verdes per a mapes adjacents.


METAR-TAF: